createdAt,value
2022-10-09T00:00:14.820Z,44.85
2022-10-09T00:03:27.526Z,44.81
2022-10-09T00:06:19.305Z,44.65
2022-10-09T00:09:14.280Z,44.81
2022-10-09T00:12:04.457Z,44.53
2022-10-09T00:14:54.680Z,44.71
2022-10-09T00:17:44.678Z,44.78
2022-10-09T00:20:38.690Z,44.54
2022-10-09T00:23:28.624Z,44.59
2022-10-09T00:26:18.495Z,44.67
2022-10-09T00:29:08.418Z,44.62
2022-10-09T00:31:58.688Z,44.70
2022-10-09T00:34:48.581Z,44.37
2022-10-09T00:37:38.457Z,44.78
2022-10-09T00:40:28.331Z,44.42
2022-10-09T00:43:19.565Z,44.49
2022-10-09T00:46:18.366Z,44.56
2022-10-09T00:49:17.939Z,44.50
2022-10-09T00:52:07.909Z,44.60
2022-10-09T00:54:57.769Z,44.51
2022-10-09T00:57:47.753Z,44.53
2022-10-09T01:00:37.636Z,44.76
2022-10-09T01:03:28.060Z,44.47
2022-10-09T01:06:22.866Z,44.22
2022-10-09T01:09:14.901Z,44.30
2022-10-09T01:12:10.100Z,44.41
2022-10-09T01:15:09.368Z,44.35
2022-10-09T01:18:04.060Z,44.48
2022-10-09T01:20:56.071Z,44.37
2022-10-09T01:24:11.045Z,44.47
2022-10-09T01:27:10.501Z,44.49
2022-10-09T01:30:03.419Z,44.27
2022-10-09T01:32:53.350Z,44.38
2022-10-09T01:35:43.863Z,44.51
2022-10-09T01:38:33.740Z,44.43
2022-10-09T01:41:23.559Z,44.22
2022-10-09T01:44:21.765Z,44.39
2022-10-09T01:47:13.249Z,44.50
2022-10-09T01:50:06.313Z,44.35
2022-10-09T01:53:00.039Z,44.43
2022-10-09T01:55:53.523Z,44.28
2022-10-09T01:58:48.190Z,44.22
2022-10-09T02:01:38.963Z,44.35
2022-10-09T02:04:28.901Z,44.62
2022-10-09T02:07:18.982Z,44.57
2022-10-09T02:10:10.320Z,44.35
2022-10-09T02:13:01.511Z,44.35
2022-10-09T02:15:53.405Z,44.54
2022-10-09T02:18:45.216Z,44.44
2022-10-09T02:21:39.282Z,44.41
2022-10-09T02:24:29.237Z,44.46
2022-10-09T02:27:19.572Z,44.36
2022-10-09T02:30:10.689Z,44.54
2022-10-09T02:33:00.536Z,44.57
2022-10-09T02:35:50.421Z,44.33
2022-10-09T02:38:40.991Z,44.56
2022-10-09T02:41:31.407Z,44.43
2022-10-09T02:44:21.362Z,44.34
2022-10-09T02:47:11.338Z,44.40
2022-10-09T02:50:01.389Z,44.50
2022-10-09T02:52:51.557Z,44.53
2022-10-09T02:55:41.726Z,44.55
2022-10-09T02:58:32.778Z,44.35
2022-10-09T03:01:22.697Z,44.37
2022-10-09T03:04:13.311Z,44.52
2022-10-09T03:07:03.469Z,44.38
2022-10-09T03:09:53.765Z,44.39
2022-10-09T03:12:43.597Z,44.39
2022-10-09T03:15:35.782Z,44.32
2022-10-09T03:18:25.716Z,44.45
2022-10-09T03:21:17.564Z,44.43
2022-10-09T03:24:07.514Z,44.48
2022-10-09T03:26:57.512Z,44.49
2022-10-09T03:29:47.490Z,44.34
2022-10-09T03:32:37.365Z,44.43
2022-10-09T03:35:27.433Z,44.31
2022-10-09T03:38:17.328Z,44.35
2022-10-09T03:41:08.012Z,44.38
2022-10-09T03:43:58.346Z,44.29
2022-10-09T03:46:48.267Z,44.10
2022-10-09T03:49:38.184Z,44.22
2022-10-09T03:52:28.272Z,44.26
2022-10-09T03:55:18.888Z,44.31
2022-10-09T03:58:08.930Z,44.32
2022-10-09T04:00:58.861Z,44.47
2022-10-09T04:03:48.783Z,44.31
2022-10-09T04:06:38.694Z,44.18
2022-10-09T04:09:28.580Z,44.30
2022-10-09T04:12:18.501Z,44.28
2022-10-09T04:15:10.500Z,44.12
2022-10-09T04:18:00.458Z,44.21
2022-10-09T04:20:51.103Z,44.19
2022-10-09T04:23:41.041Z,44.12
2022-10-09T04:26:30.943Z,43.94
2022-10-09T04:29:20.824Z,44.30
2022-10-09T04:32:10.705Z,44.19
2022-10-09T04:35:00.649Z,44.21
2022-10-09T04:37:50.535Z,44.03
2022-10-09T04:40:40.577Z,44.14
2022-10-09T04:43:30.989Z,44.29
2022-10-09T04:46:20.974Z,44.32
2022-10-09T04:49:13.661Z,44.30
2022-10-09T04:52:03.696Z,44.50
2022-10-09T04:54:53.599Z,44.42
2022-10-09T04:57:43.782Z,44.27
2022-10-09T05:00:33.633Z,44.58
2022-10-09T05:03:23.586Z,44.35
2022-10-09T05:06:14.484Z,44.71
2022-10-09T05:09:04.446Z,44.63
2022-10-09T05:11:54.330Z,44.84
2022-10-09T05:14:44.648Z,44.91
2022-10-09T05:17:34.669Z,44.78
2022-10-09T05:20:24.660Z,44.61
2022-10-09T05:23:14.560Z,44.70
2022-10-09T05:26:06.895Z,44.86
2022-10-09T05:28:56.769Z,44.78
2022-10-09T05:31:49.457Z,44.94
2022-10-09T05:34:39.783Z,44.95
2022-10-09T05:37:29.699Z,45.10
2022-10-09T05:40:19.641Z,45.05
2022-10-09T05:43:09.825Z,45.20
2022-10-09T05:46:08.625Z,45.06
2022-10-09T05:49:00.231Z,45.27
2022-10-09T05:51:50.893Z,45.27
2022-10-09T05:54:41.641Z,45.24
2022-10-09T05:57:31.514Z,45.41
2022-10-09T06:00:21.461Z,45.18
2022-10-09T06:03:11.392Z,45.17
2022-10-09T06:06:02.157Z,45.14
2022-10-09T06:08:52.010Z,45.19
2022-10-09T06:11:41.970Z,45.46
2022-10-09T06:14:32.303Z,45.37
2022-10-09T06:17:24.190Z,45.37
2022-10-09T06:20:14.152Z,45.22
2022-10-09T06:23:04.052Z,45.42
2022-10-09T06:25:55.674Z,45.44
2022-10-09T06:28:45.756Z,45.36
2022-10-09T06:31:35.684Z,45.59
2022-10-09T06:34:27.404Z,45.61
2022-10-09T06:37:17.364Z,45.30
2022-10-09T06:40:09.620Z,44.80
2022-10-09T06:43:00.056Z,44.25
2022-10-09T06:45:50.013Z,43.68
2022-10-09T06:48:40.705Z,43.52
2022-10-09T06:51:30.751Z,43.39
2022-10-09T06:54:22.318Z,42.96
2022-10-09T06:57:12.677Z,42.88
2022-10-09T07:00:05.802Z,42.56
2022-10-09T07:02:58.680Z,42.41
2022-10-09T07:06:10.419Z,42.19
2022-10-09T07:09:01.832Z,41.96
2022-10-09T07:11:51.997Z,42.06
2022-10-09T07:14:41.924Z,41.68
2022-10-09T07:17:32.012Z,41.81
2022-10-09T07:20:22.447Z,41.83
2022-10-09T07:23:14.885Z,41.60
2022-10-09T07:26:11.200Z,41.43
2022-10-09T07:29:01.188Z,41.26
2022-10-09T07:31:56.440Z,41.25
2022-10-09T07:34:46.464Z,41.06
2022-10-09T07:37:37.126Z,41.09
2022-10-09T07:40:27.112Z,41.26
2022-10-09T07:43:17.101Z,41.11
2022-10-09T07:46:10.566Z,40.81
2022-10-09T07:49:00.828Z,40.99
2022-10-09T07:51:50.893Z,40.88
2022-10-09T07:54:40.909Z,40.89
2022-10-09T07:57:30.770Z,40.91
2022-10-09T08:00:20.918Z,41.13
2022-10-09T08:03:10.916Z,40.84
2022-10-09T08:06:01.047Z,40.56
2022-10-09T08:08:51.880Z,40.58
2022-10-09T08:11:41.835Z,40.71
2022-10-09T08:14:38.728Z,40.51
2022-10-09T08:17:29.822Z,40.68
2022-10-09T08:20:21.181Z,40.34
2022-10-09T08:23:11.963Z,40.24
2022-10-09T08:26:12.535Z,40.68
2022-10-09T08:29:04.105Z,41.23
2022-10-09T08:31:54.134Z,41.22
2022-10-09T08:34:44.569Z,41.29
2022-10-09T08:37:34.543Z,41.39
2022-10-09T08:40:29.236Z,41.54
2022-10-09T08:43:24.015Z,41.09
2022-10-09T08:46:21.057Z,41.16
2022-10-09T08:49:12.019Z,40.91
2022-10-09T08:52:26.647Z,40.85
2022-10-09T08:55:22.402Z,40.69
2022-10-09T08:58:16.550Z,40.47
2022-10-09T09:01:12.251Z,40.48
2022-10-09T09:04:21.096Z,40.33
2022-10-09T09:07:18.083Z,40.27
2022-10-09T09:10:13.781Z,40.26
2022-10-09T09:13:08.054Z,40.19
2022-10-09T09:16:02.805Z,39.90
2022-10-09T09:19:17.223Z,39.84
2022-10-09T09:22:10.865Z,39.75
2022-10-09T09:25:06.286Z,39.62
2022-10-09T09:27:59.044Z,40.00
2022-10-09T09:30:50.475Z,40.29
2022-10-09T09:33:44.807Z,40.38
2022-10-09T09:36:39.869Z,40.65
2022-10-09T09:42:51.365Z,40.80
2022-10-09T09:45:43.306Z,40.47
2022-10-09T09:48:37.186Z,40.37
2022-10-09T09:51:30.857Z,40.16
2022-10-09T09:54:26.460Z,40.41
2022-10-09T09:57:29.436Z,40.29
2022-10-09T10:00:23.708Z,40.61
2022-10-09T10:03:15.747Z,40.53
2022-10-09T10:06:16.847Z,40.76
2022-10-09T10:09:15.430Z,40.99
2022-10-09T10:12:06.663Z,40.99
2022-10-09T10:14:56.984Z,41.26
2022-10-09T10:17:47.750Z,41.59
2022-10-09T10:20:44.911Z,41.50
2022-10-09T10:23:39.333Z,41.58
2022-10-09T10:26:34.034Z,41.72
2022-10-09T10:29:27.271Z,41.80
2022-10-09T10:32:21.657Z,41.76
2022-10-09T10:35:16.025Z,41.96
2022-10-09T10:38:12.875Z,41.84
2022-10-09T10:41:12.507Z,42.05
2022-10-09T10:44:06.855Z,42.36
2022-10-09T10:47:01.699Z,42.16
2022-10-09T10:49:51.664Z,42.35
2022-10-09T10:52:49.480Z,42.49
2022-10-09T10:55:49.506Z,42.57
2022-10-09T10:58:46.936Z,42.67
2022-10-09T11:01:44.146Z,42.83
2022-10-09T11:04:44.748Z,42.83
2022-10-09T11:07:39.540Z,42.69
2022-10-09T11:10:53.450Z,43.03
2022-10-09T11:13:56.352Z,42.94
2022-10-09T11:16:59.945Z,43.15
2022-10-09T11:20:39.924Z,43.18
2022-10-09T11:23:41.272Z,43.53
2022-10-09T11:26:38.725Z,43.30
2022-10-09T11:29:45.940Z,43.34
2022-10-09T11:32:52.426Z,43.49
2022-10-09T11:36:13.122Z,43.36
2022-10-09T11:39:20.139Z,43.37
2022-10-09T11:42:38.337Z,43.77
2022-10-09T11:46:20.676Z,43.60
2022-10-09T11:49:23.403Z,44.03
2022-10-09T11:52:43.983Z,44.02
2022-10-09T11:55:52.158Z,44.31
2022-10-09T11:59:34.441Z,44.81
2022-10-09T12:03:10.725Z,45.00
2022-10-09T12:07:16.068Z,45.25
2022-10-09T12:10:48.367Z,45.73
2022-10-09T12:13:59.484Z,46.21
2022-10-09T12:16:55.543Z,46.71
2022-10-09T12:19:46.464Z,46.62
2022-10-09T12:22:42.238Z,46.94
2022-10-09T12:25:43.773Z,46.98
2022-10-09T12:28:53.687Z,46.86
2022-10-09T12:31:44.070Z,47.08
2022-10-09T12:34:44.438Z,47.24
2022-10-09T12:37:41.028Z,46.27
2022-10-09T12:40:32.497Z,45.21
2022-10-09T12:43:26.727Z,44.66
2022-10-09T12:46:33.549Z,44.00
2022-10-09T12:49:35.367Z,43.62
2022-10-09T12:52:52.531Z,43.16
2022-10-09T12:55:47.667Z,42.93
2022-10-09T12:58:50.617Z,42.42
2022-10-09T13:01:45.017Z,42.28
2022-10-09T13:04:38.672Z,41.82
2022-10-09T13:07:30.313Z,41.93
2022-10-09T13:10:26.151Z,42.38
2022-10-09T13:13:18.714Z,42.33
2022-10-09T13:20:05.842Z,42.75
2022-10-09T13:23:08.791Z,42.77
2022-10-09T13:26:06.711Z,43.09
2022-10-09T13:29:05.867Z,43.15
2022-10-09T13:32:16.619Z,42.96
2022-10-09T13:35:15.422Z,43.09
2022-10-09T13:38:13.027Z,42.93
2022-10-09T13:41:05.384Z,43.25
2022-10-09T13:44:12.116Z,43.44
2022-10-09T13:47:10.390Z,43.80
2022-10-09T13:50:20.083Z,44.31
2022-10-09T13:53:22.083Z,44.57
2022-10-09T13:56:28.829Z,44.83
2022-10-09T13:59:28.192Z,45.16
2022-10-09T14:02:43.084Z,45.41
2022-10-09T14:05:42.309Z,45.35
2022-10-09T14:08:56.138Z,45.31
2022-10-09T14:11:58.412Z,45.17
2022-10-09T14:18:52.913Z,44.80
2022-10-09T14:21:51.735Z,44.64
2022-10-09T14:25:25.288Z,44.65
2022-10-09T14:28:26.691Z,44.57
2022-10-09T14:31:20.458Z,44.49
2022-10-09T14:34:17.552Z,44.47
2022-10-09T14:37:39.960Z,44.69
2022-10-09T14:40:51.902Z,44.48
2022-10-09T14:44:06.509Z,43.19
2022-10-09T14:47:05.219Z,42.53
2022-10-09T14:50:04.420Z,41.93
2022-10-09T14:53:13.964Z,41.24
2022-10-09T14:56:20.438Z,40.83
2022-10-09T14:59:16.013Z,40.65
2022-10-09T15:02:21.156Z,40.18
2022-10-09T15:05:21.056Z,39.74
2022-10-09T15:08:26.686Z,39.58
2022-10-09T15:11:33.697Z,39.16
2022-10-09T15:14:42.099Z,39.06
2022-10-09T15:17:35.273Z,39.02
2022-10-09T15:20:35.035Z,38.60
2022-10-09T15:24:05.318Z,38.53
2022-10-09T15:27:06.185Z,38.58
2022-10-09T15:30:03.657Z,38.96
2022-10-09T15:33:07.258Z,39.34
2022-10-09T15:36:04.459Z,39.48
2022-10-09T15:39:13.614Z,39.87
2022-10-09T15:42:07.893Z,39.86
2022-10-09T15:45:09.937Z,40.08
2022-10-09T15:48:13.512Z,40.18
2022-10-09T15:51:14.020Z,40.45
2022-10-09T15:54:17.713Z,40.35
2022-10-09T15:57:41.815Z,40.43
2022-10-09T16:00:38.024Z,40.68
2022-10-09T16:03:32.521Z,40.70
2022-10-09T16:06:25.024Z,40.82
2022-10-09T16:09:38.603Z,40.86
2022-10-09T16:12:30.749Z,40.89
2022-10-09T16:15:32.594Z,41.00
2022-10-09T16:18:38.742Z,40.91
2022-10-09T16:21:35.297Z,40.90
2022-10-09T16:24:34.440Z,41.18
2022-10-09T16:27:28.934Z,41.21
2022-10-09T16:30:50.558Z,41.41
2022-10-09T16:33:43.288Z,41.43
2022-10-09T16:36:49.265Z,41.50
2022-10-09T16:39:47.444Z,41.55
2022-10-09T16:42:38.874Z,41.33
2022-10-09T16:45:32.095Z,41.62
2022-10-09T16:48:25.635Z,41.47
2022-10-09T16:51:23.450Z,41.54
2022-10-09T16:54:29.801Z,41.65
2022-10-09T16:57:25.835Z,41.52
2022-10-09T17:00:19.356Z,41.81
2022-10-09T17:03:57.715Z,41.34
2022-10-09T17:07:09.205Z,41.21
2022-10-09T17:10:16.131Z,40.96
2022-10-09T17:14:04.691Z,40.71
2022-10-09T17:17:29.666Z,40.81
2022-10-09T17:20:56.246Z,40.94
2022-10-09T17:23:56.332Z,41.11
2022-10-09T17:27:31.991Z,41.20
2022-10-09T17:31:55.008Z,41.25
2022-10-09T17:35:37.849Z,41.47
2022-10-09T17:40:05.370Z,41.48
2022-10-09T17:47:14.051Z,41.60
2022-10-09T17:54:16.403Z,41.84
2022-10-09T17:57:45.790Z,41.79
2022-10-09T18:02:30.476Z,41.82
2022-10-09T18:07:29.750Z,41.83
2022-10-09T18:11:24.927Z,42.17
2022-10-09T18:19:29.538Z,42.16
2022-10-09T18:22:19.835Z,42.20
2022-10-09T18:25:25.360Z,42.35
2022-10-09T18:28:23.434Z,42.41
2022-10-09T18:31:16.233Z,42.34
2022-10-09T18:34:06.671Z,42.39
2022-10-09T18:37:00.509Z,42.31
2022-10-09T18:40:33.388Z,42.24
2022-10-09T18:44:06.197Z,42.52
2022-10-09T18:47:58.821Z,42.57
2022-10-09T18:51:00.041Z,42.55
2022-10-09T18:55:19.717Z,42.72
2022-10-09T18:58:31.149Z,42.53
2022-10-09T19:01:51.028Z,42.71
2022-10-09T19:09:21.851Z,42.87
2022-10-09T19:17:04.485Z,42.81
2022-10-09T19:20:32.002Z,42.96
2022-10-09T19:23:44.800Z,42.97
2022-10-09T19:27:28.653Z,43.15
2022-10-09T19:30:44.167Z,43.19
2022-10-09T19:34:12.547Z,43.16
2022-10-09T19:38:22.375Z,43.25
2022-10-09T19:41:36.187Z,43.17
2022-10-09T19:45:21.407Z,43.21
2022-10-09T19:48:44.631Z,43.36
2022-10-09T19:56:41.141Z,43.30
2022-10-09T19:58:48.065Z,43.45
2022-10-09T20:04:23.463Z,43.34
2022-10-09T20:12:04.915Z,43.49
2022-10-09T20:16:08.435Z,43.48
2022-10-09T20:19:09.883Z,43.50
2022-10-09T20:22:52.714Z,43.63
2022-10-09T20:26:31.956Z,43.46
2022-10-09T20:29:51.694Z,43.50
2022-10-09T20:33:02.466Z,43.65
2022-10-09T20:36:05.236Z,43.64
2022-10-09T20:38:57.661Z,43.72
2022-10-09T20:41:56.284Z,43.81
2022-10-09T20:45:04.035Z,43.49
2022-10-09T20:48:41.678Z,44.03
2022-10-09T20:51:50.616Z,43.83
2022-10-09T20:55:17.679Z,43.79
2022-10-09T20:58:08.079Z,43.99
2022-10-09T21:00:58.433Z,43.93
2022-10-09T21:03:51.510Z,44.04
2022-10-09T21:06:47.990Z,44.06
2022-10-09T21:09:45.132Z,44.22
2022-10-09T21:12:39.113Z,44.07
2022-10-09T21:15:45.082Z,44.10
2022-10-09T21:18:48.454Z,44.19
2022-10-09T21:21:43.777Z,44.04
2022-10-09T21:24:52.206Z,44.15
2022-10-09T21:27:51.103Z,44.19
2022-10-09T21:30:41.951Z,44.04
2022-10-09T21:33:37.668Z,44.18
2022-10-09T21:36:47.088Z,44.15
2022-10-09T21:39:54.344Z,44.03
2022-10-09T21:42:48.199Z,44.14
2022-10-09T21:45:38.814Z,44.19
2022-10-09T21:48:30.143Z,44.10
2022-10-09T21:51:21.760Z,44.28
2022-10-09T21:54:13.965Z,44.27
2022-10-09T21:57:04.322Z,44.13
2022-10-09T21:59:54.474Z,44.24
2022-10-09T22:02:44.685Z,44.31
2022-10-09T22:05:35.013Z,44.10
2022-10-09T22:08:25.204Z,44.25
2022-10-09T22:11:15.499Z,44.23
2022-10-09T22:14:07.524Z,44.23
2022-10-09T22:16:59.820Z,44.06
2022-10-09T22:19:50.127Z,43.67
2022-10-09T22:22:40.360Z,42.87
2022-10-09T22:25:30.688Z,43.22
2022-10-09T22:28:20.833Z,43.07
2022-10-09T22:31:13.846Z,43.44
2022-10-09T22:34:04.058Z,43.59
2022-10-09T22:36:54.277Z,43.47
2022-10-09T22:39:44.830Z,43.40
2022-10-09T22:42:35.992Z,43.33
2022-10-09T22:45:26.232Z,43.34
2022-10-09T22:48:16.667Z,43.60
2022-10-09T22:51:08.567Z,43.93
2022-10-09T22:53:59.571Z,44.03
2022-10-09T22:56:49.784Z,43.82
2022-10-09T22:59:40.155Z,43.84
2022-10-09T23:02:30.198Z,43.86
2022-10-09T23:05:20.263Z,44.22
2022-10-09T23:08:10.361Z,44.24
2022-10-09T23:11:00.441Z,44.22
2022-10-09T23:13:54.215Z,43.99
2022-10-09T23:16:44.324Z,44.31
2022-10-09T23:19:34.399Z,44.16
2022-10-09T23:22:24.622Z,44.30
2022-10-09T23:25:14.815Z,44.47
2022-10-09T23:28:05.041Z,44.24
2022-10-09T23:31:01.612Z,44.40
2022-10-09T23:33:52.079Z,44.56
2022-10-09T23:36:42.276Z,44.43
2022-10-09T23:39:32.609Z,44.40
2022-10-09T23:42:23.058Z,44.40
2022-10-09T23:45:13.425Z,44.36
2022-10-09T23:48:03.511Z,44.58
2022-10-09T23:50:53.759Z,44.33
2022-10-09T23:53:43.987Z,44.64
2022-10-09T23:56:35.382Z,44.50
2022-10-09T23:59:25.947Z,44.58
